createdAt,value
2023-01-12T00:02:09.187Z,15.50
2023-01-12T00:06:37.152Z,13.50
2023-01-12T00:11:05.056Z,16.90
2023-01-12T00:15:38.399Z,13.90
2023-01-12T00:20:05.850Z,14.20
2023-01-12T00:24:34.991Z,16.40
2023-01-12T00:29:03.570Z,16.20
2023-01-12T00:33:31.421Z,14.80
2023-01-12T00:37:59.304Z,12.00
2023-01-12T00:42:25.815Z,15.00
2023-01-12T00:46:53.897Z,14.20
2023-01-12T00:51:21.958Z,14.30
2023-01-12T00:55:49.997Z,14.30
2023-01-12T01:00:18.120Z,13.80
2023-01-12T01:04:47.526Z,14.10
2023-01-12T01:09:19.131Z,13.90
2023-01-12T01:13:47.762Z,15.10
2023-01-12T01:18:16.888Z,14.40
2023-01-12T01:22:44.543Z,14.70
2023-01-12T01:27:13.879Z,12.90
2023-01-12T01:31:45.514Z,14.00
2023-01-12T01:36:14.422Z,14.50
2023-01-12T01:40:42.415Z,14.20
2023-01-12T01:45:11.245Z,15.10
2023-01-12T01:49:39.191Z,14.90
2023-01-12T01:54:07.132Z,16.70
2023-01-12T01:58:39.404Z,14.80
2023-01-12T02:03:08.742Z,21.90
2023-01-12T02:07:37.611Z,15.10
2023-01-12T02:12:09.083Z,16.80
2023-01-12T02:16:43.042Z,15.00
2023-01-12T02:21:09.059Z,17.00
2023-01-12T02:25:49.093Z,18.60
2023-01-12T02:30:34.204Z,16.50
2023-01-12T02:35:12.662Z,15.70
2023-01-12T02:39:40.546Z,20.80
2023-01-12T02:44:13.616Z,13.70
2023-01-12T02:49:02.330Z,16.20
2023-01-12T02:53:30.977Z,16.10
2023-01-12T02:58:01.765Z,14.60
2023-01-12T03:02:29.471Z,14.30
2023-01-12T03:07:00.503Z,15.60
2023-01-12T03:11:32.557Z,16.20
2023-01-12T03:16:01.858Z,15.00
2023-01-12T03:20:30.699Z,15.50
2023-01-12T03:24:59.788Z,17.60
2023-01-12T03:29:27.445Z,17.10
2023-01-12T03:33:57.202Z,18.30
2023-01-12T03:38:26.054Z,20.90
2023-01-12T03:42:51.408Z,15.90
2023-01-12T03:47:21.820Z,15.90
2023-01-12T03:51:58.285Z,16.50
2023-01-12T03:56:26.026Z,18.90
2023-01-12T04:00:55.880Z,15.90
2023-01-12T04:05:23.780Z,18.30
2023-01-12T04:09:52.022Z,16.40
2023-01-12T04:14:20.566Z,14.90
2023-01-12T04:18:48.131Z,17.70
2023-01-12T04:23:15.856Z,17.50
2023-01-12T04:27:43.473Z,17.70
2023-01-12T04:32:11.390Z,20.30
2023-01-12T04:36:41.923Z,22.10
2023-01-12T04:41:17.587Z,22.20
2023-01-12T04:45:45.725Z,15.20
2023-01-12T04:50:13.366Z,15.10
2023-01-12T04:54:41.024Z,17.10
2023-01-12T04:59:09.244Z,16.10
2023-01-12T05:03:36.547Z,16.90
2023-01-12T05:08:04.274Z,17.20
2023-01-12T05:12:32.296Z,15.30
2023-01-12T05:17:12.222Z,14.60
2023-01-12T05:21:40.226Z,14.10
2023-01-12T05:26:08.687Z,12.50
2023-01-12T05:30:36.132Z,15.80
2023-01-12T05:35:05.028Z,14.30
2023-01-12T05:39:32.782Z,10.80
2023-01-12T05:44:12.361Z,10.70
2023-01-12T05:48:42.994Z,12.20
2023-01-12T05:53:11.483Z,9.60
2023-01-12T05:57:41.421Z,13.20
2023-01-12T06:02:10.455Z,13.10
2023-01-12T06:06:38.433Z,10.20
2023-01-12T06:11:06.484Z,10.80
2023-01-12T06:15:35.340Z,11.40
2023-01-12T06:20:03.402Z,14.70
2023-01-12T06:24:31.191Z,13.10
2023-01-12T06:28:58.941Z,11.80
2023-01-12T06:33:26.555Z,13.20
2023-01-12T06:37:34.735Z,13.70
2023-01-12T06:42:00.906Z,12.50
2023-01-12T06:46:28.543Z,11.90
2023-01-12T06:50:56.338Z,14.30
2023-01-12T06:55:24.909Z,12.40
2023-01-12T06:59:52.748Z,12.40
2023-01-12T07:04:20.693Z,11.20
2023-01-12T07:08:48.310Z,12.20
2023-01-12T07:12:55.958Z,10.30
2023-01-12T07:17:22.836Z,12.00
2023-01-12T07:21:51.389Z,12.20
2023-01-12T07:26:20.053Z,11.70
2023-01-12T07:30:48.360Z,12.20
2023-01-12T07:35:16.292Z,13.00
2023-01-12T07:39:44.670Z,10.90
2023-01-12T07:44:12.963Z,14.20
2023-01-12T07:48:41.690Z,11.00
2023-01-12T07:53:13.228Z,13.00
2023-01-12T07:57:41.609Z,11.20
2023-01-12T08:02:09.759Z,12.20
2023-01-12T08:06:37.333Z,14.60
2023-01-12T08:11:06.048Z,9.70
2023-01-12T08:17:56.953Z,11.80
2023-01-12T08:22:28.257Z,14.20
2023-01-12T08:26:58.755Z,10.70
2023-01-12T08:31:34.572Z,13.70
2023-01-12T08:36:04.173Z,12.10
2023-01-12T08:40:14.629Z,11.60
2023-01-12T08:44:29.511Z,11.90
2023-01-12T08:49:00.381Z,11.60
2023-01-12T08:53:31.372Z,11.70
2023-01-12T08:58:00.953Z,13.30
2023-01-12T09:02:31.568Z,9.20
2023-01-12T09:07:03.639Z,9.40
2023-01-12T09:11:29.063Z,11.20
2023-01-12T09:16:11.780Z,11.40
2023-01-12T09:20:30.330Z,9.00
2023-01-12T09:25:01.557Z,12.70
2023-01-12T09:29:30.748Z,12.60
2023-01-12T09:34:01.503Z,11.10
2023-01-12T09:38:18.849Z,7.70
2023-01-12T09:42:53.513Z,10.30
2023-01-12T09:47:28.557Z,11.70
2023-01-12T09:51:46.620Z,13.10
2023-01-12T09:56:34.970Z,11.40
2023-01-12T10:01:14.585Z,10.30
2023-01-12T10:05:40.327Z,10.40
2023-01-12T10:09:56.737Z,12.00
2023-01-12T10:14:38.102Z,11.70
2023-01-12T10:19:15.923Z,12.80
2023-01-12T10:23:56.335Z,13.40
2023-01-12T10:28:09.823Z,11.90
2023-01-12T10:32:41.973Z,10.50
2023-01-12T10:37:10.793Z,11.60
2023-01-12T10:41:29.605Z,10.70
2023-01-12T10:45:35.583Z,12.20
2023-01-12T10:49:58.964Z,10.80
2023-01-12T10:54:40.490Z,10.30
2023-01-12T10:59:19.109Z,13.90
2023-01-12T11:03:49.738Z,12.00
2023-01-12T11:08:24.029Z,8.80
2023-01-12T11:13:08.418Z,10.50
2023-01-12T11:17:39.694Z,11.70
2023-01-12T11:22:08.891Z,12.10
2023-01-12T11:26:41.423Z,10.00
2023-01-12T11:31:11.073Z,12.70
2023-01-12T11:35:39.948Z,15.90
2023-01-12T11:40:11.004Z,11.60
2023-01-12T11:44:42.743Z,12.10
2023-01-12T11:49:24.918Z,11.40
2023-01-12T11:53:54.055Z,10.60
2023-01-12T11:58:35.036Z,11.50
2023-01-12T12:03:22.100Z,10.40
2023-01-12T12:08:07.161Z,13.20
2023-01-12T12:18:19.585Z,8.50
2023-01-12T12:22:21.511Z,10.30
2023-01-12T12:26:22.224Z,11.20
2023-01-12T12:30:17.528Z,8.40
2023-01-12T12:34:18.661Z,11.00
2023-01-12T12:38:22.389Z,9.40
2023-01-12T12:42:24.839Z,11.50
2023-01-12T12:46:21.417Z,7.30
2023-01-12T12:50:14.027Z,10.90
2023-01-12T12:54:11.045Z,8.50
2023-01-12T12:58:01.564Z,15.40
2023-01-12T13:02:00.163Z,11.10
2023-01-12T13:05:41.031Z,9.50
2023-01-12T13:09:24.107Z,10.00
2023-01-12T13:13:13.922Z,9.90
2023-01-12T13:17:00.861Z,9.40
2023-01-12T13:20:45.636Z,9.40
2023-01-12T13:24:49.732Z,8.30
2023-01-12T13:28:40.751Z,9.10
2023-01-12T13:32:32.430Z,9.30
2023-01-12T13:36:24.614Z,8.50
2023-01-12T13:39:55.035Z,7.90
2023-01-12T13:43:36.712Z,7.20
2023-01-12T13:47:29.050Z,7.90
2023-01-12T13:51:17.818Z,8.60
2023-01-12T13:55:07.175Z,11.40
2023-01-12T13:58:56.567Z,10.10
2023-01-12T14:02:38.332Z,9.20
2023-01-12T14:06:40.495Z,7.60
2023-01-12T14:10:30.985Z,8.50
2023-01-12T14:14:17.462Z,8.50
2023-01-12T14:18:15.103Z,13.80
2023-01-12T14:21:42.328Z,9.90
2023-01-12T14:25:30.055Z,8.80
2023-01-12T14:29:21.931Z,9.10
2023-01-12T14:33:10.124Z,8.70
2023-01-12T14:37:02.726Z,8.20
2023-01-12T14:40:58.010Z,9.90
2023-01-12T14:44:35.519Z,9.30
2023-01-12T14:48:28.036Z,9.00
2023-01-12T14:52:17.189Z,8.10
2023-01-12T14:56:14.490Z,7.50
2023-01-12T15:00:02.840Z,9.40
2023-01-12T15:03:59.410Z,8.90
2023-01-12T15:07:44.364Z,7.70
2023-01-12T15:11:25.081Z,9.80
2023-01-12T15:14:55.819Z,11.60
2023-01-12T15:18:44.313Z,11.70
2023-01-12T15:22:26.056Z,12.10
2023-01-12T15:26:15.815Z,8.90
2023-01-12T15:30:05.470Z,11.80
2023-01-12T15:33:26.304Z,10.70
2023-01-12T15:37:07.421Z,10.50
2023-01-12T15:40:39.405Z,9.80
2023-01-12T15:44:02.530Z,10.70
2023-01-12T15:47:29.763Z,13.40
2023-01-12T15:51:20.459Z,10.70
2023-01-12T15:55:10.313Z,11.50
2023-01-12T15:58:24.097Z,10.50
2023-01-12T16:02:09.217Z,11.20
2023-01-12T16:05:52.449Z,14.40
2023-01-12T16:09:17.623Z,10.00
2023-01-12T16:13:07.816Z,10.80
2023-01-12T16:16:40.183Z,9.70
2023-01-12T16:20:13.315Z,11.60
2023-01-12T16:23:50.048Z,12.50
2023-01-12T16:27:31.715Z,12.10
2023-01-12T16:31:21.181Z,9.20
2023-01-12T16:34:58.480Z,10.10
2023-01-12T16:38:45.048Z,7.30
2023-01-12T16:42:09.945Z,8.70
2023-01-12T16:45:40.931Z,7.80
2023-01-12T16:49:13.691Z,6.80
2023-01-12T16:52:47.368Z,11.10
2023-01-12T16:56:25.607Z,7.50
2023-01-12T17:00:15.345Z,7.00
2023-01-12T17:04:05.020Z,7.80
2023-01-12T17:07:43.350Z,9.00
2023-01-12T17:11:07.662Z,8.50
2023-01-12T17:14:43.364Z,9.80
2023-01-12T17:18:11.564Z,10.30
2023-01-12T17:22:02.407Z,9.50
2023-01-12T17:25:33.334Z,6.40
2023-01-12T17:29:14.667Z,7.70
2023-01-12T17:32:46.150Z,8.40
2023-01-12T17:36:05.381Z,7.60
2023-01-12T17:39:02.307Z,7.10
2023-01-12T17:42:14.448Z,8.70
2023-01-12T17:45:33.931Z,8.60
2023-01-12T17:49:16.486Z,9.50
2023-01-12T17:52:25.625Z,10.00
2023-01-12T17:55:13.951Z,7.60
2023-01-12T17:58:08.397Z,8.10
2023-01-12T18:01:36.098Z,8.30
2023-01-12T18:05:11.019Z,8.20
2023-01-12T18:08:44.542Z,8.00
2023-01-12T18:12:09.258Z,9.10
2023-01-12T18:15:57.830Z,7.90
2023-01-12T18:19:32.573Z,9.90
2023-01-12T18:22:36.659Z,9.30
2023-01-12T18:26:04.807Z,8.90
2023-01-12T18:29:55.415Z,10.90
2023-01-12T18:33:36.439Z,8.70
2023-01-12T18:37:28.651Z,8.10
2023-01-12T18:41:15.284Z,10.40
2023-01-12T18:44:49.248Z,9.80
2023-01-12T18:48:41.592Z,8.00
2023-01-12T18:52:16.154Z,10.00
2023-01-12T18:55:52.046Z,8.20
2023-01-12T18:59:04.427Z,10.00
2023-01-12T19:02:19.694Z,8.10
2023-01-12T19:05:44.814Z,10.70
2023-01-12T19:09:16.850Z,7.80
2023-01-12T19:12:32.348Z,8.40
2023-01-12T19:16:13.440Z,8.20
2023-01-12T19:19:50.451Z,8.30
2023-01-12T19:23:15.419Z,9.10
2023-01-12T19:26:52.483Z,8.50
2023-01-12T19:30:08.670Z,10.30
2023-01-12T19:33:28.201Z,10.40
2023-01-12T19:36:52.592Z,7.80
2023-01-12T19:40:23.199Z,8.50
2023-01-12T19:44:13.213Z,8.10
2023-01-12T19:47:43.093Z,8.50
2023-01-12T19:51:07.859Z,7.00
2023-01-12T19:54:36.108Z,6.20
2023-01-12T19:57:54.679Z,9.20
2023-01-12T20:01:28.654Z,9.10
2023-01-12T20:04:56.898Z,7.80
2023-01-12T20:08:22.063Z,8.90
2023-01-12T20:11:56.152Z,8.60
2023-01-12T20:15:32.541Z,6.90
2023-01-12T20:19:22.606Z,9.20
2023-01-12T20:22:50.360Z,7.90
2023-01-12T20:26:12.426Z,7.50
2023-01-12T20:29:43.999Z,7.60
2023-01-12T20:33:10.401Z,8.40
2023-01-12T20:36:51.787Z,7.90
2023-01-12T20:41:17.920Z,7.80
2023-01-12T20:44:22.238Z,6.90
2023-01-12T20:48:02.847Z,8.90
2023-01-12T20:51:26.555Z,8.00
2023-01-12T20:54:44.423Z,8.20
2023-01-12T20:58:25.572Z,7.70
2023-01-12T21:02:27.459Z,9.70
2023-01-12T21:06:15.568Z,8.10
2023-01-12T21:09:05.116Z,7.30
2023-01-12T21:12:44.902Z,5.90
2023-01-12T21:16:37.177Z,6.90
2023-01-12T21:20:17.537Z,8.80
2023-01-12T21:24:00.919Z,9.00
2023-01-12T21:27:47.232Z,6.90
2023-01-12T21:31:43.425Z,9.00
2023-01-12T21:35:33.121Z,9.00
2023-01-12T21:39:05.781Z,8.30
2023-01-12T21:42:53.993Z,9.80
2023-01-12T21:46:39.501Z,9.70
2023-01-12T21:50:01.942Z,9.10
2023-01-12T21:53:52.168Z,8.90
2023-01-12T21:57:28.068Z,8.50
2023-01-12T22:00:55.579Z,7.30
2023-01-12T22:04:32.801Z,7.70
2023-01-12T22:08:21.396Z,7.80
2023-01-12T22:12:11.270Z,8.70
2023-01-12T22:16:00.602Z,7.40
2023-01-12T22:19:49.657Z,6.10
2023-01-12T22:23:37.845Z,4.90
2023-01-12T22:27:19.385Z,6.40
2023-01-12T22:31:08.679Z,9.60
2023-01-12T22:34:58.650Z,10.10
2023-01-12T22:38:31.929Z,10.60
2023-01-12T22:42:21.758Z,9.30
2023-01-12T22:46:09.594Z,8.60
2023-01-12T22:49:59.636Z,5.90
2023-01-12T22:53:34.400Z,5.50
2023-01-12T22:57:12.803Z,7.40
2023-01-12T23:00:38.068Z,8.90
2023-01-12T23:04:19.444Z,6.60
2023-01-12T23:08:08.482Z,5.80
2023-01-12T23:12:03.885Z,7.10
2023-01-12T23:15:35.750Z,8.00
2023-01-12T23:19:08.045Z,7.90
2023-01-12T23:22:57.030Z,6.80
2023-01-12T23:26:41.376Z,5.90
2023-01-12T23:30:13.171Z,7.10
2023-01-12T23:34:02.314Z,6.10
2023-01-12T23:37:51.351Z,7.40
2023-01-12T23:41:39.831Z,6.50
2023-01-12T23:45:29.497Z,7.50
2023-01-12T23:49:18.566Z,5.40
2023-01-12T23:52:59.842Z,5.80
2023-01-12T23:56:39.512Z,5.30
